Thompson Airport
CYTH : now visible

Airfield :











YOU CAN JOIN US ON...

 
LOGIN :

Register | Disclaimer

   EN    FR    IT 

 









Legend :    VFR   Marginal VFR   IFR   Intensive IFR   Very Intensive IFR
Visi :
Ceiling :
>= 8 km
>= 3000ft
5 to 8 km
1000 to 3000 ft
1500m to 5 km
500 to 1000 ft
800 to 1500m
200 to 500 ft
< 800m
< 200 ft
Symbols :   Thunderstorms  Fog  Heavy snow  Heavy precipitations  Wind > 20 kt






- Airport Elevation : 729 ft
- IATA code : YTH


CYTH - Thompson

CURRENT METAR :
  • 251000Z CCA 13003KT 040V170 15SM FEW070 SCT110 08/07 A2921 RMK AC1AC2 LTNG DIST NE SLP902 DENSITY ALT 1000FT

EXPIRED METARs :
  • 250900Z 09003KT 060V170 15SM SCT078 09/07 A2924 RMK AC3 LTNG DIST N SE SLP910 DENSITY ALT 1000FT
  • 250840Z CCA 14003KT 070V230 15SM FEW070 SCT160 09/07 A2924 RMK AC2AC1 LTNG DIST N SE SLP911 DENSITY ALT 1000FT
  • 250800Z 11004KT 050V170 15SM TS SCT076CB BKN160 09/07 A2926 RMK CB3AC2 LTGCG N SLP917 DENSITY ALT 1000FT

TAF AMD TAF CYTH
Valid from the 25 at 08:00 until the 25 at 19:00 UTC


250818Z 2508/2519 12005KT P6SM SCT070 BKN160
TEMPO 2508/2509 P6SM TSRA BKN030CB OVC100
FM250900 14005KT P6SM SCT020
TEMPO 2509/2519 3SM -RA BR SCT008 BKN020
BECMG 2512/2514 23010KT RMK NXT FCST BY 251300Z
CZWG FIR / North America



MET'MAP, your aeronautical weather chart ! - Copyright ORBIFLY December 2007 - Disclaimer

ORBIFLY MET'MAP TEAM :

Programming & Development : Alexandra Zaïnal
Concept & original design : Baudouin d'Aumeries
Assistance for programming : Marc-Olivier Méhu
Technical & hardware support : Manuel Goepfert

Contact : metmap@orbifly.com




SOURCES & CREDITS :

   NOAA       Earth
Advisory